sensor_id;sensor_type;location;lat;lon;timestamp;temperature;humidity
47600;DHT22;33323;52.124;6.018;2022-10-19T00:01:06;5.90;99.90
47600;DHT22;33323;52.124;6.018;2022-10-19T00:03:48;5.90;99.90
47600;DHT22;33323;52.124;6.018;2022-10-19T00:06:32;5.90;99.90
47600;DHT22;33323;52.124;6.018;2022-10-19T00:09:03;5.90;99.90
47600;DHT22;33323;52.124;6.018;2022-10-19T00:11:33;5.90;99.90
47600;DHT22;33323;52.124;6.018;2022-10-19T00:14:02;5.80;99.90
47600;DHT22;33323;52.124;6.018;2022-10-19T00:16:33;5.80;99.90
47600;DHT22;33323;52.124;6.018;2022-10-19T00:19:04;5.70;99.90
47600;DHT22;33323;52.124;6.018;2022-10-19T00:21:34;5.80;99.90
47600;DHT22;33323;52.124;6.018;2022-10-19T00:24:01;5.80;99.90
47600;DHT22;33323;52.124;6.018;2022-10-19T00:26:28;5.70;99.90
47600;DHT22;33323;52.124;6.018;2022-10-19T00:28:55;5.70;99.90
47600;DHT22;33323;52.124;6.018;2022-10-19T00:31:23;5.60;99.90
47600;DHT22;33323;52.124;6.018;2022-10-19T00:33:51;5.60;99.90
47600;DHT22;33323;52.124;6.018;2022-10-19T00:38:53;5.30;99.90
47600;DHT22;33323;52.124;6.018;2022-10-19T00:41:22;5.30;99.90
47600;DHT22;33323;52.124;6.018;2022-10-19T00:46:25;5.40;99.90
47600;DHT22;33323;52.124;6.018;2022-10-19T00:48:57;5.50;99.90
47600;DHT22;33323;52.124;6.018;2022-10-19T00:51:28;5.60;99.90
47600;DHT22;33323;52.124;6.018;2022-10-19T00:53:57;5.50;99.90
47600;DHT22;33323;52.124;6.018;2022-10-19T00:56:26;5.60;99.90
47600;DHT22;33323;52.124;6.018;2022-10-19T00:58:53;5.60;99.90
47600;DHT22;33323;52.124;6.018;2022-10-19T01:01:22;5.40;99.90
47600;DHT22;33323;52.124;6.018;2022-10-19T01:03:50;5.20;99.90
47600;DHT22;33323;52.124;6.018;2022-10-19T01:06:18;5.20;99.90
47600;DHT22;33323;52.124;6.018;2022-10-19T01:08:46;5.30;99.90
47600;DHT22;33323;52.124;6.018;2022-10-19T01:28:44;4.90;99.90
47600;DHT22;33323;52.124;6.018;2022-10-19T01:34:47;4.90;99.90
47600;DHT22;33323;52.124;6.018;2022-10-19T01:40:39;5.10;99.90
47600;DHT22;33323;52.124;6.018;2022-10-19T01:43:18;4.90;99.90
47600;DHT22;33323;52.124;6.018;2022-10-19T01:45:58;4.90;99.90
47600;DHT22;33323;52.124;6.018;2022-10-19T01:48:34;4.80;99.90
47600;DHT22;33323;52.124;6.018;2022-10-19T01:51:19;4.70;99.90
47600;DHT22;33323;52.124;6.018;2022-10-19T01:54:16;4.80;99.90
47600;DHT22;33323;52.124;6.018;2022-10-19T01:56:45;4.80;99.90
47600;DHT22;33323;52.124;6.018;2022-10-19T01:59:15;4.70;99.90
47600;DHT22;33323;52.124;6.018;2022-10-19T02:01:45;4.70;99.90
47600;DHT22;33323;52.124;6.018;2022-10-19T02:04:18;4.70;99.90
47600;DHT22;33323;52.124;6.018;2022-10-19T02:06:46;4.60;99.90
47600;DHT22;33323;52.124;6.018;2022-10-19T02:09:13;4.60;99.90
47600;DHT22;33323;52.124;6.018;2022-10-19T02:11:52;4.60;99.90
47600;DHT22;33323;52.124;6.018;2022-10-19T02:14:26;4.60;99.90
47600;DHT22;33323;52.124;6.018;2022-10-19T02:17:17;4.60;99.90
47600;DHT22;33323;52.124;6.018;2022-10-19T02:19:46;4.60;99.90
47600;DHT22;33323;52.124;6.018;2022-10-19T02:22:13;4.60;99.90
47600;DHT22;33323;52.124;6.018;2022-10-19T02:24:40;4.60;99.90
47600;DHT22;33323;52.124;6.018;2022-10-19T02:27:08;4.60;99.90
47600;DHT22;33323;52.124;6.018;2022-10-19T02:29:36;4.50;99.90
47600;DHT22;33323;52.124;6.018;2022-10-19T02:32:03;4.60;99.90
47600;DHT22;33323;52.124;6.018;2022-10-19T02:34:31;4.60;99.90
47600;DHT22;33323;52.124;6.018;2022-10-19T02:36:58;4.70;99.90
47600;DHT22;33323;52.124;6.018;2022-10-19T02:39:25;4.60;99.90
47600;DHT22;33323;52.124;6.018;2022-10-19T02:45:19;4.30;99.90
47600;DHT22;33323;52.124;6.018;2022-10-19T02:47:53;4.30;99.90
47600;DHT22;33323;52.124;6.018;2022-10-19T02:50:21;4.30;99.90
47600;DHT22;33323;52.124;6.018;2022-10-19T02:52:49;4.20;99.90
47600;DHT22;33323;52.124;6.018;2022-10-19T02:55:16;4.20;99.90
47600;DHT22;33323;52.124;6.018;2022-10-19T02:57:43;4.30;99.90
47600;DHT22;33323;52.124;6.018;2022-10-19T03:00:11;4.40;99.90
47600;DHT22;33323;52.124;6.018;2022-10-19T03:02:38;4.30;99.90
47600;DHT22;33323;52.124;6.018;2022-10-19T03:05:05;4.20;99.90
47600;DHT22;33323;52.124;6.018;2022-10-19T03:07:32;4.20;99.90
47600;DHT22;33323;52.124;6.018;2022-10-19T03:10:00;4.20;99.90
47600;DHT22;33323;52.124;6.018;2022-10-19T03:12:27;4.20;99.90
47600;DHT22;33323;52.124;6.018;2022-10-19T03:14:53;4.10;99.90
47600;DHT22;33323;52.124;6.018;2022-10-19T03:17:20;4.00;99.90
47600;DHT22;33323;52.124;6.018;2022-10-19T03:19:47;4.00;99.90
47600;DHT22;33323;52.124;6.018;2022-10-19T03:22:14;4.10;99.90
47600;DHT22;33323;52.124;6.018;2022-10-19T03:24:41;4.10;99.90
47600;DHT22;33323;52.124;6.018;2022-10-19T03:27:08;4.00;99.90
47600;DHT22;33323;52.124;6.018;2022-10-19T03:29:35;4.00;99.90
47600;DHT22;33323;52.124;6.018;2022-10-19T03:32:02;4.10;99.90
47600;DHT22;33323;52.124;6.018;2022-10-19T03:34:29;4.10;99.90
47600;DHT22;33323;52.124;6.018;2022-10-19T03:36:56;4.00;99.90
47600;DHT22;33323;52.124;6.018;2022-10-19T03:39:24;4.00;99.90
47600;DHT22;33323;52.124;6.018;2022-10-19T03:41:51;4.00;99.90
47600;DHT22;33323;52.124;6.018;2022-10-19T03:44:18;4.00;99.90
47600;DHT22;33323;52.124;6.018;2022-10-19T03:46:45;4.10;99.90
47600;DHT22;33323;52.124;6.018;2022-10-19T03:49:14;4.00;99.90
47600;DHT22;33323;52.124;6.018;2022-10-19T03:51:41;4.00;99.90
47600;DHT22;33323;52.124;6.018;2022-10-19T03:54:11;3.90;99.90
47600;DHT22;33323;52.124;6.018;2022-10-19T03:56:41;4.00;99.90
47600;DHT22;33323;52.124;6.018;2022-10-19T03:59:13;4.00;99.90
47600;DHT22;33323;52.124;6.018;2022-10-19T04:01:43;4.00;99.90
47600;DHT22;33323;52.124;6.018;2022-10-19T04:04:15;4.00;99.90
47600;DHT22;33323;52.124;6.018;2022-10-19T04:06:45;3.90;99.90
47600;DHT22;33323;52.124;6.018;2022-10-19T04:09:17;4.00;99.90
47600;DHT22;33323;52.124;6.018;2022-10-19T04:11:46;3.90;99.90
47600;DHT22;33323;52.124;6.018;2022-10-19T04:14:15;3.80;99.90
47600;DHT22;33323;52.124;6.018;2022-10-19T04:17:01;3.80;99.90
47600;DHT22;33323;52.124;6.018;2022-10-19T04:19:28;3.80;99.90
47600;DHT22;33323;52.124;6.018;2022-10-19T04:21:56;3.80;99.90
47600;DHT22;33323;52.124;6.018;2022-10-19T04:24:23;3.80;99.90
47600;DHT22;33323;52.124;6.018;2022-10-19T04:26:53;3.90;99.90
47600;DHT22;33323;52.124;6.018;2022-10-19T04:29:23;3.90;99.90
47600;DHT22;33323;52.124;6.018;2022-10-19T04:31:55;4.00;99.90
47600;DHT22;33323;52.124;6.018;2022-10-19T04:34:22;3.80;99.90
47600;DHT22;33323;52.124;6.018;2022-10-19T04:36:49;3.70;99.90
47600;DHT22;33323;52.124;6.018;2022-10-19T04:39:16;3.70;99.90
47600;DHT22;33323;52.124;6.018;2022-10-19T04:41:43;3.60;99.90
47600;DHT22;33323;52.124;6.018;2022-10-19T04:44:10;3.60;99.90
47600;DHT22;33323;52.124;6.018;2022-10-19T04:46:37;3.60;99.90
47600;DHT22;33323;52.124;6.018;2022-10-19T04:49:04;3.50;99.90
47600;DHT22;33323;52.124;6.018;2022-10-19T04:51:33;3.60;99.90
47600;DHT22;33323;52.124;6.018;2022-10-19T04:54:01;3.60;99.90
47600;DHT22;33323;52.124;6.018;2022-10-19T04:56:29;3.60;99.90
47600;DHT22;33323;52.124;6.018;2022-10-19T04:58:59;3.60;99.90
47600;DHT22;33323;52.124;6.018;2022-10-19T05:01:28;3.60;99.90
47600;DHT22;33323;52.124;6.018;2022-10-19T05:03:57;3.60;99.90
47600;DHT22;33323;52.124;6.018;2022-10-19T05:06:27;3.50;99.90
47600;DHT22;33323;52.124;6.018;2022-10-19T05:08:55;3.50;99.90
47600;DHT22;33323;52.124;6.018;2022-10-19T05:11:22;3.50;99.90
47600;DHT22;33323;52.124;6.018;2022-10-19T05:13:49;3.60;99.90
47600;DHT22;33323;52.124;6.018;2022-10-19T05:16:19;3.40;99.90
47600;DHT22;33323;52.124;6.018;2022-10-19T05:18:48;3.40;99.90
47600;DHT22;33323;52.124;6.018;2022-10-19T05:21:16;3.40;99.90
47600;DHT22;33323;52.124;6.018;2022-10-19T05:23:44;3.40;99.90
47600;DHT22;33323;52.124;6.018;2022-10-19T05:26:13;3.40;99.90
47600;DHT22;33323;52.124;6.018;2022-10-19T05:28:47;3.50;99.90
47600;DHT22;33323;52.124;6.018;2022-10-19T05:31:17;3.40;99.90
47600;DHT22;33323;52.124;6.018;2022-10-19T05:33:45;3.30;99.90
47600;DHT22;33323;52.124;6.018;2022-10-19T05:36:22;3.30;99.90
47600;DHT22;33323;52.124;6.018;2022-10-19T05:38:55;3.30;99.90
47600;DHT22;33323;52.124;6.018;2022-10-19T05:41:23;3.30;99.90
47600;DHT22;33323;52.124;6.018;2022-10-19T05:43:53;3.30;99.90
47600;DHT22;33323;52.124;6.018;2022-10-19T05:46:22;3.30;99.90
47600;DHT22;33323;52.124;6.018;2022-10-19T05:48:50;3.40;99.90
47600;DHT22;33323;52.124;6.018;2022-10-19T05:51:19;3.30;99.90
47600;DHT22;33323;52.124;6.018;2022-10-19T05:53:47;3.40;99.90
47600;DHT22;33323;52.124;6.018;2022-10-19T05:56:20;3.30;99.90
47600;DHT22;33323;52.124;6.018;2022-10-19T05:58:48;3.30;99.90
47600;DHT22;33323;52.124;6.018;2022-10-19T06:01:16;3.30;99.90
47600;DHT22;33323;52.124;6.018;2022-10-19T06:03:50;3.40;99.90
47600;DHT22;33323;52.124;6.018;2022-10-19T06:06:19;3.30;99.90
47600;DHT22;33323;52.124;6.018;2022-10-19T06:08:46;3.30;99.90
47600;DHT22;33323;52.124;6.018;2022-10-19T06:11:17;3.20;99.90
47600;DHT22;33323;52.124;6.018;2022-10-19T06:13:49;3.20;99.90
47600;DHT22;33323;52.124;6.018;2022-10-19T06:16:21;3.40;99.90
47600;DHT22;33323;52.124;6.018;2022-10-19T06:18:50;3.40;99.90
47600;DHT22;33323;52.124;6.018;2022-10-19T06:21:20;3.30;99.90
47600;DHT22;33323;52.124;6.018;2022-10-19T06:24:02;3.30;99.90
47600;DHT22;33323;52.124;6.018;2022-10-19T06:26:31;3.30;99.90
47600;DHT22;33323;52.124;6.018;2022-10-19T06:29:00;3.30;99.90
47600;DHT22;33323;52.124;6.018;2022-10-19T06:31:32;3.40;99.90
47600;DHT22;33323;52.124;6.018;2022-10-19T06:34:00;3.30;99.90
47600;DHT22;33323;52.124;6.018;2022-10-19T06:36:29;3.30;99.90
47600;DHT22;33323;52.124;6.018;2022-10-19T06:38:57;3.40;99.90
47600;DHT22;33323;52.124;6.018;2022-10-19T06:41:25;3.50;99.90
47600;DHT22;33323;52.124;6.018;2022-10-19T06:43:53;3.50;99.90
47600;DHT22;33323;52.124;6.018;2022-10-19T06:46:23;3.70;99.90
47600;DHT22;33323;52.124;6.018;2022-10-19T06:48:51;3.80;99.90
47600;DHT22;33323;52.124;6.018;2022-10-19T06:51:19;3.90;99.90
47600;DHT22;33323;52.124;6.018;2022-10-19T06:53:47;3.80;99.90
47600;DHT22;33323;52.124;6.018;2022-10-19T06:56:21;3.90;99.90
47600;DHT22;33323;52.124;6.018;2022-10-19T06:58:50;3.90;99.90
47600;DHT22;33323;52.124;6.018;2022-10-19T07:01:18;3.90;99.90
47600;DHT22;33323;52.124;6.018;2022-10-19T07:03:46;4.00;99.90
47600;DHT22;33323;52.124;6.018;2022-10-19T07:06:13;4.00;99.90
47600;DHT22;33323;52.124;6.018;2022-10-19T07:08:41;4.10;99.90
47600;DHT22;33323;52.124;6.018;2022-10-19T07:11:14;4.10;99.90
47600;DHT22;33323;52.124;6.018;2022-10-19T07:13:42;4.30;99.90
47600;DHT22;33323;52.124;6.018;2022-10-19T07:16:12;4.30;99.90
47600;DHT22;33323;52.124;6.018;2022-10-19T07:18:48;4.30;99.90
47600;DHT22;33323;52.124;6.018;2022-10-19T07:21:16;4.40;99.90
47600;DHT22;33323;52.124;6.018;2022-10-19T07:23:45;4.50;99.90
47600;DHT22;33323;52.124;6.018;2022-10-19T07:26:18;4.60;99.90
47600;DHT22;33323;52.124;6.018;2022-10-19T07:28:55;4.70;99.90
47600;DHT22;33323;52.124;6.018;2022-10-19T07:31:23;4.90;99.90
47600;DHT22;33323;52.124;6.018;2022-10-19T07:33:55;4.90;99.90
47600;DHT22;33323;52.124;6.018;2022-10-19T07:36:24;5.00;99.90
47600;DHT22;33323;52.124;6.018;2022-10-19T07:38:52;5.10;99.90
47600;DHT22;33323;52.124;6.018;2022-10-19T07:41:21;5.20;99.90
47600;DHT22;33323;52.124;6.018;2022-10-19T07:43:49;5.40;99.90
47600;DHT22;33323;52.124;6.018;2022-10-19T07:46:20;5.70;99.90
47600;DHT22;33323;52.124;6.018;2022-10-19T07:48:49;6.00;99.90
47600;DHT22;33323;52.124;6.018;2022-10-19T07:51:17;6.10;99.90
47600;DHT22;33323;52.124;6.018;2022-10-19T07:53:45;6.30;99.90
47600;DHT22;33323;52.124;6.018;2022-10-19T07:56:21;6.40;99.90
47600;DHT22;33323;52.124;6.018;2022-10-19T07:58:50;6.50;99.90
47600;DHT22;33323;52.124;6.018;2022-10-19T08:01:24;6.70;99.90
47600;DHT22;33323;52.124;6.018;2022-10-19T08:03:54;6.90;99.90
47600;DHT22;33323;52.124;6.018;2022-10-19T08:06:42;7.00;99.90
47600;DHT22;33323;52.124;6.018;2022-10-19T08:09:10;7.00;99.90
47600;DHT22;33323;52.124;6.018;2022-10-19T08:11:57;7.10;99.90
47600;DHT22;33323;52.124;6.018;2022-10-19T08:14:24;7.30;99.90
47600;DHT22;33323;52.124;6.018;2022-10-19T08:16:51;7.40;99.90
47600;DHT22;33323;52.124;6.018;2022-10-19T08:19:18;7.60;99.90
47600;DHT22;33323;52.124;6.018;2022-10-19T08:21:46;7.80;99.90
47600;DHT22;33323;52.124;6.018;2022-10-19T08:24:14;8.00;99.90
47600;DHT22;33323;52.124;6.018;2022-10-19T08:26:43;8.20;99.90
47600;DHT22;33323;52.124;6.018;2022-10-19T08:29:15;8.30;99.90
47600;DHT22;33323;52.124;6.018;2022-10-19T08:31:45;8.50;99.90
47600;DHT22;33323;52.124;6.018;2022-10-19T08:34:14;8.80;99.90
47600;DHT22;33323;52.124;6.018;2022-10-19T08:36:41;9.00;99.90
47600;DHT22;33323;52.124;6.018;2022-10-19T08:39:09;9.30;99.90
47600;DHT22;33323;52.124;6.018;2022-10-19T08:42:09;9.60;99.90
47600;DHT22;33323;52.124;6.018;2022-10-19T08:45:02;9.70;99.90
47600;DHT22;33323;52.124;6.018;2022-10-19T08:50:38;10.00;99.90
47600;DHT22;33323;52.124;6.018;2022-10-19T08:59:12;11.10;99.90
47600;DHT22;33323;52.124;6.018;2022-10-19T09:01:46;11.10;99.90
47600;DHT22;33323;52.124;6.018;2022-10-19T09:07:23;11.20;99.90
47600;DHT22;33323;52.124;6.018;2022-10-19T09:12:59;11.40;99.90
47600;DHT22;33323;52.124;6.018;2022-10-19T09:15:45;11.70;99.90
47600;DHT22;33323;52.124;6.018;2022-10-19T09:18:25;12.00;99.90
47600;DHT22;33323;52.124;6.018;2022-10-19T09:24:10;12.10;99.90
47600;DHT22;33323;52.124;6.018;2022-10-19T09:26:53;12.40;99.90
47600;DHT22;33323;52.124;6.018;2022-10-19T09:29:27;12.80;99.90
47600;DHT22;33323;52.124;6.018;2022-10-19T09:31:59;13.10;99.90
47600;DHT22;33323;52.124;6.018;2022-10-19T09:34:34;13.20;99.90
47600;DHT22;33323;52.124;6.018;2022-10-19T09:37:03;13.20;99.90
47600;DHT22;33323;52.124;6.018;2022-10-19T09:39:30;13.20;99.90
47600;DHT22;33323;52.124;6.018;2022-10-19T09:42:06;13.20;99.90
47600;DHT22;33323;52.124;6.018;2022-10-19T09:44:46;13.10;99.90
47600;DHT22;33323;52.124;6.018;2022-10-19T09:47:35;13.20;99.90
47600;DHT22;33323;52.124;6.018;2022-10-19T09:52:41;13.60;99.90
47600;DHT22;33323;52.124;6.018;2022-10-19T09:55:34;13.50;99.90
47600;DHT22;33323;52.124;6.018;2022-10-19T09:58:09;13.50;99.90
47600;DHT22;33323;52.124;6.018;2022-10-19T10:00:47;13.60;99.90
47600;DHT22;33323;52.124;6.018;2022-10-19T10:03:31;13.70;99.70
47600;DHT22;33323;52.124;6.018;2022-10-19T10:06:08;13.70;98.50
47600;DHT22;33323;52.124;6.018;2022-10-19T10:08:46;13.60;97.90
47600;DHT22;33323;52.124;6.018;2022-10-19T10:11:22;13.70;98.40
47600;DHT22;33323;52.124;6.018;2022-10-19T10:13:53;13.70;97.30
47600;DHT22;33323;52.124;6.018;2022-10-19T10:16:23;13.80;98.60
47600;DHT22;33323;52.124;6.018;2022-10-19T10:19:02;13.80;97.80
47600;DHT22;33323;52.124;6.018;2022-10-19T10:21:33;13.90;96.50
47600;DHT22;33323;52.124;6.018;2022-10-19T10:24:20;13.90;97.80
47600;DHT22;33323;52.124;6.018;2022-10-19T10:27:23;14.00;97.30
47600;DHT22;33323;52.124;6.018;2022-10-19T10:29:53;14.00;94.80
47600;DHT22;33323;52.124;6.018;2022-10-19T10:32:22;13.90;94.70
47600;DHT22;33323;52.124;6.018;2022-10-19T10:35:03;13.70;95.30
47600;DHT22;33323;52.124;6.018;2022-10-19T10:37:44;13.60;95.60
47600;DHT22;33323;52.124;6.018;2022-10-19T10:40:28;13.80;97.10
47600;DHT22;33323;52.124;6.018;2022-10-19T10:43:08;14.00;96.10
47600;DHT22;33323;52.124;6.018;2022-10-19T10:45:51;14.10;95.10
47600;DHT22;33323;52.124;6.018;2022-10-19T10:48:26;14.10;95.50
47600;DHT22;33323;52.124;6.018;2022-10-19T10:51:17;14.30;95.20
47600;DHT22;33323;52.124;6.018;2022-10-19T10:53:47;14.20;93.70
47600;DHT22;33323;52.124;6.018;2022-10-19T10:56:21;14.20;95.30
47600;DHT22;33323;52.124;6.018;2022-10-19T10:58:59;14.00;93.80
47600;DHT22;33323;52.124;6.018;2022-10-19T11:01:38;13.90;94.30
47600;DHT22;33323;52.124;6.018;2022-10-19T11:04:12;13.90;94.10
47600;DHT22;33323;52.124;6.018;2022-10-19T11:06:45;14.00;93.60
47600;DHT22;33323;52.124;6.018;2022-10-19T11:12:03;14.00;94.10
47600;DHT22;33323;52.124;6.018;2022-10-19T11:14:37;14.00;93.60
47600;DHT22;33323;52.124;6.018;2022-10-19T11:17:22;14.00;93.20
47600;DHT22;33323;52.124;6.018;2022-10-19T11:19:52;14.00;92.30
47600;DHT22;33323;52.124;6.018;2022-10-19T11:22:41;13.90;92.50
47600;DHT22;33323;52.124;6.018;2022-10-19T11:25:23;14.00;93.40
47600;DHT22;33323;52.124;6.018;2022-10-19T11:31:19;13.90;94.20
47600;DHT22;33323;52.124;6.018;2022-10-19T11:34:11;14.00;94.20
47600;DHT22;33323;52.124;6.018;2022-10-19T11:37:27;13.90;92.90
47600;DHT22;33323;52.124;6.018;2022-10-19T11:40:12;13.90;93.10
47600;DHT22;33323;52.124;6.018;2022-10-19T11:51:05;14.00;93.20
47600;DHT22;33323;52.124;6.018;2022-10-19T11:53:54;14.00;92.80
47600;DHT22;33323;52.124;6.018;2022-10-19T11:56:45;14.10;93.60
47600;DHT22;33323;52.124;6.018;2022-10-19T12:02:22;14.50;93.70
47600;DHT22;33323;52.124;6.018;2022-10-19T12:10:55;14.90;93.60
47600;DHT22;33323;52.124;6.018;2022-10-19T12:13:50;14.90;91.90
47600;DHT22;33323;52.124;6.018;2022-10-19T12:16:26;14.80;92.60
47600;DHT22;33323;52.124;6.018;2022-10-19T12:19:04;14.70;92.20
47600;DHT22;33323;52.124;6.018;2022-10-19T12:21:36;14.70;92.90
47600;DHT22;33323;52.124;6.018;2022-10-19T12:24:12;14.60;91.60
47600;DHT22;33323;52.124;6.018;2022-10-19T12:26:43;14.60;91.50
47600;DHT22;33323;52.124;6.018;2022-10-19T12:29:15;14.70;92.90
47600;DHT22;33323;52.124;6.018;2022-10-19T12:31:45;14.50;92.20
47600;DHT22;33323;52.124;6.018;2022-10-19T12:37:30;14.60;92.30
47600;DHT22;33323;52.124;6.018;2022-10-19T12:42:52;14.70;92.30
47600;DHT22;33323;52.124;6.018;2022-10-19T12:53:28;14.70;92.40
47600;DHT22;33323;52.124;6.018;2022-10-19T12:56:20;14.90;93.30
47600;DHT22;33323;52.124;6.018;2022-10-19T12:58:57;14.90;90.90
47600;DHT22;33323;52.124;6.018;2022-10-19T13:04:15;14.70;92.20
47600;DHT22;33323;52.124;6.018;2022-10-19T13:06:57;14.70;92.20
47600;DHT22;33323;52.124;6.018;2022-10-19T13:09:38;14.60;90.50
47600;DHT22;33323;52.124;6.018;2022-10-19T13:14:58;14.80;92.50
47600;DHT22;33323;52.124;6.018;2022-10-19T13:25:41;14.70;92.60
47600;DHT22;33323;52.124;6.018;2022-10-19T13:41:24;14.70;89.90
47600;DHT22;33323;52.124;6.018;2022-10-19T13:52:44;14.70;92.30
47600;DHT22;33323;52.124;6.018;2022-10-19T14:03:57;14.60;91.80
47600;DHT22;33323;52.124;6.018;2022-10-19T14:06:41;14.60;91.10
47600;DHT22;33323;52.124;6.018;2022-10-19T14:12:34;14.60;91.00
47600;DHT22;33323;52.124;6.018;2022-10-19T14:15:33;14.60;90.60
47600;DHT22;33323;52.124;6.018;2022-10-19T14:18:00;14.60;91.50
47600;DHT22;33323;52.124;6.018;2022-10-19T14:20:35;14.60;92.40
47600;DHT22;33323;52.124;6.018;2022-10-19T14:23:24;14.60;92.40
47600;DHT22;33323;52.124;6.018;2022-10-19T14:25:59;14.60;91.80
47600;DHT22;33323;52.124;6.018;2022-10-19T14:28:27;14.60;92.70
47600;DHT22;33323;52.124;6.018;2022-10-19T14:31:00;14.60;93.30
47600;DHT22;33323;52.124;6.018;2022-10-19T14:33:34;14.60;92.60
47600;DHT22;33323;52.124;6.018;2022-10-19T14:36:05;14.50;93.10
47600;DHT22;33323;52.124;6.018;2022-10-19T14:38:35;14.50;93.10
47600;DHT22;33323;52.124;6.018;2022-10-19T14:41:05;14.50;93.30
47600;DHT22;33323;52.124;6.018;2022-10-19T14:43:44;14.40;93.30
47600;DHT22;33323;52.124;6.018;2022-10-19T14:46:13;14.30;93.10
47600;DHT22;33323;52.124;6.018;2022-10-19T14:48:46;14.30;93.50
47600;DHT22;33323;52.124;6.018;2022-10-19T15:02:03;13.90;92.70
47600;DHT22;33323;52.124;6.018;2022-10-19T15:04:36;13.80;93.20
47600;DHT22;33323;52.124;6.018;2022-10-19T15:07:14;13.70;93.60
47600;DHT22;33323;52.124;6.018;2022-10-19T15:09:53;13.60;94.00
47600;DHT22;33323;52.124;6.018;2022-10-19T15:12:28;13.60;93.50
47600;DHT22;33323;52.124;6.018;2022-10-19T15:15:00;13.50;94.20
47600;DHT22;33323;52.124;6.018;2022-10-19T15:17:29;13.50;94.30
47600;DHT22;33323;52.124;6.018;2022-10-19T15:19:58;13.50;94.40
47600;DHT22;33323;52.124;6.018;2022-10-19T15:27:34;13.60;94.80
47600;DHT22;33323;52.124;6.018;2022-10-19T15:30:05;13.60;94.60
47600;DHT22;33323;52.124;6.018;2022-10-19T15:35:41;13.60;95.00
47600;DHT22;33323;52.124;6.018;2022-10-19T15:40:42;13.50;95.10
47600;DHT22;33323;52.124;6.018;2022-10-19T15:43:41;13.40;95.10
47600;DHT22;33323;52.124;6.018;2022-10-19T15:46:23;13.40;95.20
47600;DHT22;33323;52.124;6.018;2022-10-19T15:54:46;13.10;95.70
47600;DHT22;33323;52.124;6.018;2022-10-19T15:57:26;13.10;96.10
47600;DHT22;33323;52.124;6.018;2022-10-19T15:59:55;13.00;96.20
47600;DHT22;33323;52.124;6.018;2022-10-19T16:02:23;12.80;96.60
47600;DHT22;33323;52.124;6.018;2022-10-19T16:04:53;12.80;96.80
47600;DHT22;33323;52.124;6.018;2022-10-19T16:07:27;12.70;97.00
47600;DHT22;33323;52.124;6.018;2022-10-19T16:09:56;12.70;97.50
47600;DHT22;33323;52.124;6.018;2022-10-19T16:12:25;12.50;97.70
47600;DHT22;33323;52.124;6.018;2022-10-19T16:14:53;12.50;97.90
47600;DHT22;33323;52.124;6.018;2022-10-19T16:17:20;12.40;97.90
47600;DHT22;33323;52.124;6.018;2022-10-19T16:19:48;12.40;98.10
47600;DHT22;33323;52.124;6.018;2022-10-19T16:22:15;12.30;98.50
47600;DHT22;33323;52.124;6.018;2022-10-19T16:24:42;12.20;98.60
47600;DHT22;33323;52.124;6.018;2022-10-19T16:27:09;12.10;98.80
47600;DHT22;33323;52.124;6.018;2022-10-19T16:29:41;12.10;98.90
47600;DHT22;33323;52.124;6.018;2022-10-19T16:32:09;12.00;99.20
47600;DHT22;33323;52.124;6.018;2022-10-19T16:34:36;11.90;99.30
47600;DHT22;33323;52.124;6.018;2022-10-19T16:37:03;11.80;99.60
47600;DHT22;33323;52.124;6.018;2022-10-19T16:39:33;11.70;99.80
47600;DHT22;33323;52.124;6.018;2022-10-19T16:42:01;11.70;99.90
47600;DHT22;33323;52.124;6.018;2022-10-19T16:44:30;11.70;99.90
47600;DHT22;33323;52.124;6.018;2022-10-19T16:46:58;11.60;99.90
47600;DHT22;33323;52.124;6.018;2022-10-19T16:49:25;11.60;99.90
47600;DHT22;33323;52.124;6.018;2022-10-19T16:51:52;11.60;99.90
47600;DHT22;33323;52.124;6.018;2022-10-19T16:54:24;11.60;99.90
47600;DHT22;33323;52.124;6.018;2022-10-19T16:56:52;11.50;99.90
47600;DHT22;33323;52.124;6.018;2022-10-19T16:59:22;11.50;99.90
47600;DHT22;33323;52.124;6.018;2022-10-19T17:01:50;11.50;99.90
47600;DHT22;33323;52.124;6.018;2022-10-19T17:04:19;11.90;99.70
47600;DHT22;33323;52.124;6.018;2022-10-19T17:06:47;12.10;99.20
47600;DHT22;33323;52.124;6.018;2022-10-19T17:09:14;12.30;97.80
47600;DHT22;33323;52.124;6.018;2022-10-19T17:12:01;12.30;98.10
47600;DHT22;33323;52.124;6.018;2022-10-19T17:14:29;12.10;98.50
47600;DHT22;33323;52.124;6.018;2022-10-19T17:16:56;12.00;98.70
47600;DHT22;33323;52.124;6.018;2022-10-19T17:19:23;11.80;99.00
47600;DHT22;33323;52.124;6.018;2022-10-19T17:21:51;11.70;99.90
47600;DHT22;33323;52.124;6.018;2022-10-19T17:24:21;11.60;99.90
47600;DHT22;33323;52.124;6.018;2022-10-19T17:26:52;11.40;99.90
47600;DHT22;33323;52.124;6.018;2022-10-19T17:29:20;11.40;99.90
47600;DHT22;33323;52.124;6.018;2022-10-19T17:31:48;11.30;99.90
47600;DHT22;33323;52.124;6.018;2022-10-19T17:34:16;11.10;99.90
47600;DHT22;33323;52.124;6.018;2022-10-19T17:36:45;11.10;99.90
47600;DHT22;33323;52.124;6.018;2022-10-19T17:39:18;11.00;99.90
47600;DHT22;33323;52.124;6.018;2022-10-19T17:41:53;11.00;99.90
47600;DHT22;33323;52.124;6.018;2022-10-19T17:44:21;11.00;99.90
47600;DHT22;33323;52.124;6.018;2022-10-19T17:46:48;10.90;99.90
47600;DHT22;33323;52.124;6.018;2022-10-19T17:49:15;10.90;99.90
47600;DHT22;33323;52.124;6.018;2022-10-19T17:51:42;10.90;99.90
47600;DHT22;33323;52.124;6.018;2022-10-19T17:54:11;10.80;99.90
47600;DHT22;33323;52.124;6.018;2022-10-19T17:56:40;10.80;99.90
47600;DHT22;33323;52.124;6.018;2022-10-19T17:59:11;10.80;99.90
47600;DHT22;33323;52.124;6.018;2022-10-19T18:01:38;10.80;99.90
47600;DHT22;33323;52.124;6.018;2022-10-19T18:04:06;10.80;99.90
47600;DHT22;33323;52.124;6.018;2022-10-19T18:06:35;10.80;99.90
47600;DHT22;33323;52.124;6.018;2022-10-19T18:09:05;10.80;99.90
47600;DHT22;33323;52.124;6.018;2022-10-19T18:11:40;10.70;99.90
47600;DHT22;33323;52.124;6.018;2022-10-19T18:14:09;10.60;99.90
47600;DHT22;33323;52.124;6.018;2022-10-19T18:16:42;10.60;99.90
47600;DHT22;33323;52.124;6.018;2022-10-19T18:19:12;10.50;99.90
47600;DHT22;33323;52.124;6.018;2022-10-19T18:21:42;10.50;99.90
47600;DHT22;33323;52.124;6.018;2022-10-19T18:24:12;10.40;99.90
47600;DHT22;33323;52.124;6.018;2022-10-19T18:26:49;10.40;99.90
47600;DHT22;33323;52.124;6.018;2022-10-19T18:29:21;10.50;99.90
47600;DHT22;33323;52.124;6.018;2022-10-19T18:31:50;10.40;99.90
47600;DHT22;33323;52.124;6.018;2022-10-19T18:34:20;10.30;99.90
47600;DHT22;33323;52.124;6.018;2022-10-19T18:36:49;10.50;99.90
47600;DHT22;33323;52.124;6.018;2022-10-19T18:39:16;10.70;99.90
47600;DHT22;33323;52.124;6.018;2022-10-19T18:41:44;10.70;99.90
47600;DHT22;33323;52.124;6.018;2022-10-19T18:44:12;10.80;99.90
47600;DHT22;33323;52.124;6.018;2022-10-19T18:46:39;10.70;99.90
47600;DHT22;33323;52.124;6.018;2022-10-19T18:49:07;10.50;99.90
47600;DHT22;33323;52.124;6.018;2022-10-19T18:51:36;10.40;99.90
47600;DHT22;33323;52.124;6.018;2022-10-19T18:56:55;10.20;99.90